Time;durP1;ratioP1;P1;durP2;ratioP2;P2;SDS_P1;SDS_P2;PMS_P1;PMS_P2;Temp;Humidity;BMP_temperature;BMP_pressure;BME280_temperature;BME280_humidity;BME280_pressure;Samples;Min_cycle;Max_cycle;Signal;HPM_P1;HPM_P2
2021/09/01 00:00:47;;;;;;;15.83;10.77;;;;;;;15.13;78.12;101260.25;5058223;28;20403;-75
2021/09/01 00:03:12;;;;;;;12.63;10.45;;;;;;;15.10;78.08;101258.88;5063944;28;20816;-76
2021/09/01 00:05:37;;;;;;;10.80;9.67;;;;;;;15.07;77.87;101257.47;5072117;28;20446;-75
2021/09/01 00:08:04;;;;;;;11.47;9.57;;;;;;;15.06;78.07;101263.19;5071455;28;20492;-76
2021/09/01 00:10:29;;;;;;;10.63;9.60;;;;;;;15.04;77.78;101262.63;5073163;28;20807;-76
2021/09/01 00:12:54;;;;;;;15.30;10.33;;;;;;;15.03;77.98;101261.78;5073959;28;20436;-76
2021/09/01 00:15:20;;;;;;;11.13;9.50;;;;;;;15.04;78.01;101258.00;5071843;28;20773;-76
2021/09/01 00:17:45;;;;;;;13.63;11.03;;;;;;;15.05;78.04;101261.53;5064995;28;20410;-76
2021/09/01 00:20:11;;;;;;;13.80;11.90;;;;;;;15.05;78.33;101262.34;5065113;28;20409;-76
2021/09/01 00:22:36;;;;;;;16.27;12.93;;;;;;;15.07;78.67;101265.66;5070646;28;20396;-76
2021/09/01 00:25:03;;;;;;;16.45;12.65;;;;;;;15.08;78.76;101252.84;5068765;28;20859;-76
2021/09/01 00:27:28;;;;;;;15.70;13.60;;;;;;;15.09;78.19;101257.22;5052323;28;20484;-75
2021/09/01 00:29:53;;;;;;;17.27;13.03;;;;;;;15.08;78.10;101263.78;5058166;28;20497;-76
2021/09/01 00:32:18;;;;;;;17.03;13.37;;;;;;;15.07;78.06;101259.38;5052440;28;20746;-75
2021/09/01 00:34:44;;;;;;;16.47;12.70;;;;;;;15.06;77.61;101260.44;5056284;28;20429;-76
2021/09/01 00:37:09;;;;;;;15.53;12.50;;;;;;;15.03;76.98;101259.06;5072583;28;20420;-76
2021/09/01 00:39:34;;;;;;;18.87;12.70;;;;;;;15.02;77.54;101260.13;5070865;28;20874;-75
2021/09/01 00:42:04;;;;;;;15.20;12.37;;;;;;;14.98;77.37;101258.19;5053324;28;20401;-76
2021/09/01 00:44:29;;;;;;;18.17;12.98;;;;;;;14.96;77.14;101258.44;5055521;28;20437;-75
2021/09/01 00:46:55;;;;;;;16.30;12.53;;;;;;;14.95;77.31;101255.97;5059571;28;20436;-76
2021/09/01 00:49:21;;;;;;;18.85;14.27;;;;;;;14.95;78.04;101253.25;5060162;28;20429;-75
2021/09/01 00:51:48;;;;;;;19.40;15.25;;;;;;;14.96;78.29;101252.13;5067500;28;20463;-76
2021/09/01 00:54:19;;;;;;;24.08;17.65;;;;;;;14.96;78.65;101250.25;5070896;28;20845;-76
2021/09/01 00:56:50;;;;;;;17.38;14.85;;;;;;;14.99;78.04;101251.63;5073153;28;20372;-76
2021/09/01 00:59:15;;;;;;;14.80;11.82;;;;;;;14.97;77.11;101251.91;5071134;28;20481;-76
2021/09/01 01:01:48;;;;;;;12.07;10.88;;;;;;;14.93;76.65;101249.91;5065167;28;20446;-75
2021/09/01 01:04:13;;;;;;;13.30;11.10;;;;;;;14.87;76.36;101243.59;5072798;28;20520;-76
2021/09/01 01:06:39;;;;;;;14.30;10.10;;;;;;;14.83;76.06;101245.16;5072681;28;20478;-75
2021/09/01 01:09:05;;;;;;;12.02;10.60;;;;;;;14.80;75.84;101253.03;5055853;28;20423;-75
2021/09/01 01:11:30;;;;;;;16.27;10.93;;;;;;;14.76;76.24;101246.41;5071913;28;20432;-76
2021/09/01 01:13:55;;;;;;;12.47;11.20;;;;;;;14.69;76.52;101245.78;5071367;28;20415;-75
2021/09/01 01:16:25;;;;;;;13.63;11.20;;;;;;;14.64;76.80;101241.09;5062810;28;20406;-76
2021/09/01 01:18:52;;;;;;;16.33;12.48;;;;;;;14.62;76.37;101240.50;5051675;28;20436;-75
2021/09/01 01:21:22;;;;;;;19.35;14.57;;;;;;;14.59;77.23;101243.75;5056209;28;20409;-76
2021/09/01 01:24:00;;;;;;;15.95;12.20;;;;;;;14.61;77.07;101240.78;5052996;28;20407;-75
2021/09/01 01:26:27;;;;;;;16.13;11.73;;;;;;;14.62;77.11;101240.50;5055804;28;20753;-75
2021/09/01 01:28:55;;;;;;;17.35;12.27;;;;;;;14.63;76.72;101235.88;5067551;28;20404;-75
2021/09/01 01:31:21;;;;;;;14.52;12.48;;;;;;;14.62;77.10;101237.78;5060571;28;20401;-75
2021/09/01 01:33:46;;;;;;;16.40;12.03;;;;;;;14.61;77.67;101240.78;5051975;28;20903;-75
2021/09/01 01:36:12;;;;;;;18.27;12.57;;;;;;;14.58;77.04;101242.13;5065871;28;20408;-75
2021/09/01 01:38:37;;;;;;;18.70;13.80;;;;;;;14.55;76.48;101251.59;5067932;28;20399;-75
2021/09/01 01:41:02;;;;;;;18.73;14.50;;;;;;;14.56;78.00;101249.72;5058357;28;20393;-75
2021/09/01 01:43:31;;;;;;;17.37;14.87;;;;;;;14.56;77.81;101241.53;5065984;28;20410;-75
2021/09/01 01:45:56;;;;;;;19.38;13.77;;;;;;;14.57;77.35;101247.81;5070414;28;20441;-75
2021/09/01 01:48:21;;;;;;;15.63;12.57;;;;;;;14.56;77.22;101246.97;5068996;28;20813;-75
2021/09/01 01:50:47;;;;;;;15.90;11.95;;;;;;;14.56;76.81;101246.97;5070292;28;20453;-75
2021/09/01 01:53:12;;;;;;;16.93;11.70;;;;;;;14.55;77.08;101239.91;5069851;28;20404;-75
2021/09/01 01:55:38;;;;;;;16.57;11.97;;;;;;;14.53;76.68;101252.94;5056385;28;20417;-75
2021/09/01 01:58:04;;;;;;;14.17;12.43;;;;;;;14.49;77.26;101249.88;5069270;28;20404;-75
2021/09/01 02:00:29;;;;;;;20.08;13.77;;;;;;;14.48;76.96;101247.44;5053794;28;20494;-76
2021/09/01 02:02:55;;;;;;;19.88;13.57;;;;;;;14.46;77.72;101247.66;5071245;28;20495;-75
2021/09/01 02:05:20;;;;;;;20.53;14.67;;;;;;;14.47;77.62;101245.75;5070565;28;20490;-75
2021/09/01 02:07:45;;;;;;;27.23;18.50;;;;;;;14.48;78.23;101248.25;5053515;28;20495;-75
2021/09/01 02:10:11;;;;;;;22.13;16.93;;;;;;;14.50;78.58;101248.00;5055933;28;20465;-75
2021/09/01 02:12:39;;;;;;;23.95;19.42;;;;;;;14.52;78.71;101246.66;5066387;28;20466;-75
2021/09/01 02:15:07;;;;;;;31.77;21.50;;;;;;;14.56;79.20;101244.25;5061893;28;20416;-75
2021/09/01 02:17:32;;;;;;;31.45;23.13;;;;;;;14.59;79.38;101253.84;5059449;28;20406;-75
2021/09/01 02:19:58;;;;;;;34.90;24.58;;;;;;;14.61;79.75;101247.06;5054412;28;20480;-76
2021/09/01 02:22:24;;;;;;;38.30;26.70;;;;;;;14.62;79.40;101245.16;5071671;28;20391;-75
2021/09/01 02:24:49;;;;;;;40.93;28.20;;;;;;;14.63;79.60;101244.06;5069487;28;20429;-75
2021/09/01 02:27:15;;;;;;;42.57;28.77;;;;;;;14.65;80.03;101244.66;5057737;28;20405;-75
2021/09/01 02:29:41;;;;;;;41.28;28.33;;;;;;;14.66;79.89;101241.66;5051179;28;20412;-75
2021/09/01 02:32:07;;;;;;;38.97;27.45;;;;;;;14.66;79.73;101238.94;5065873;28;20420;-76
2021/09/01 02:34:33;;;;;;;39.45;27.38;;;;;;;14.64;79.47;101245.72;5054127;28;20417;-75
2021/09/01 02:36:59;;;;;;;41.63;27.77;;;;;;;14.62;79.33;101245.16;5054491;28;20418;-75
2021/09/01 02:39:25;;;;;;;41.38;27.73;;;;;;;14.59;79.09;101243.75;5049334;28;20496;-75
2021/09/01 02:41:51;;;;;;;42.03;29.05;;;;;;;14.57;79.55;101248.63;5056620;28;20422;-75
2021/09/01 02:44:16;;;;;;;42.83;27.60;;;;;;;14.55;79.56;101251.59;5055543;28;20919;-75
2021/09/01 02:46:41;;;;;;;44.30;28.43;;;;;;;14.54;79.08;101257.31;5053590;28;20480;-75
2021/09/01 02:49:07;;;;;;;42.13;28.30;;;;;;;14.51;79.31;101257.84;5064320;28;20399;-75
2021/09/01 02:51:32;;;;;;;43.37;28.30;;;;;;;14.49;79.40;101258.06;5058800;28;20909;-75
2021/09/01 02:53:58;;;;;;;41.10;27.23;;;;;;;14.49;79.12;101254.50;5064422;28;20909;-76
2021/09/01 02:56:23;;;;;;;45.47;29.27;;;;;;;14.48;79.15;101253.72;5054407;28;20413;-75
2021/09/01 02:58:48;;;;;;;45.03;28.83;;;;;;;14.47;78.88;101257.50;5053548;28;20487;-75
2021/09/01 03:01:14;;;;;;;46.37;30.00;;;;;;;14.47;79.84;101259.41;5058359;28;20809;-75
2021/09/01 03:03:39;;;;;;;47.73;29.13;;;;;;;14.50;80.26;101270.63;5059113;28;20408;-75
2021/09/01 03:06:04;;;;;;;48.37;31.17;;;;;;;14.54;80.36;101268.22;5059827;28;20407;-75
2021/09/01 03:08:29;;;;;;;43.30;29.00;;;;;;;14.55;80.48;101270.69;5053900;28;20429;-76
2021/09/01 03:10:55;;;;;;;42.63;29.20;;;;;;;14.58;80.66;101268.56;5050423;28;20403;-75
2021/09/01 03:13:20;;;;;;;51.10;29.87;;;;;;;14.56;80.14;101260.63;5050361;28;20411;-75
2021/09/01 03:15:45;;;;;;;45.13;30.17;;;;;;;14.54;80.34;101263.59;5049632;28;20785;-75
2021/09/01 03:18:10;;;;;;;44.57;29.13;;;;;;;14.52;80.51;101262.22;5057104;28;20405;-76
2021/09/01 03:20:36;;;;;;;42.70;27.67;;;;;;;14.53;80.36;101266.56;5052690;28;20409;-75
2021/09/01 03:23:01;;;;;;;44.53;29.33;;;;;;;14.52;80.47;101263.03;5052868;28;20515;-75
2021/09/01 03:25:26;;;;;;;43.67;29.35;;;;;;;14.54;80.31;101263.59;5052327;28;20488;-75
2021/09/01 03:27:52;;;;;;;45.70;30.40;;;;;;;14.55;80.55;101269.91;5068407;28;20384;-75
2021/09/01 03:30:17;;;;;;;45.70;29.60;;;;;;;14.54;80.42;101268.22;5063095;28;20696;-75
2021/09/01 03:32:43;;;;;;;46.03;28.80;;;;;;;14.54;80.49;101266.34;5054296;28;20417;-75
2021/09/01 03:35:08;;;;;;;42.43;28.13;;;;;;;14.54;80.29;101265.50;5055120;28;20875;-75
2021/09/01 03:37:34;;;;;;;45.15;29.77;;;;;;;14.53;80.57;101267.41;5067248;28;20403;-75
2021/09/01 03:40:00;;;;;;;44.55;29.02;;;;;;;14.51;80.28;101261.38;5054185;28;20424;-75
2021/09/01 03:42:26;;;;;;;44.17;28.90;;;;;;;14.51;80.50;101260.56;5057445;28;20408;-75
2021/09/01 03:44:51;;;;;;;41.65;28.10;;;;;;;14.49;80.08;101263.53;5055360;28;20415;-75
2021/09/01 03:47:16;;;;;;;46.30;28.57;;;;;;;14.46;80.40;101260.47;5055471;28;20923;-75
2021/09/01 03:49:42;;;;;;;42.13;28.37;;;;;;;14.45;80.23;101267.03;5054105;28;20412;-75
2021/09/01 03:52:07;;;;;;;44.33;28.13;;;;;;;14.44;80.12;101276.28;5056288;28;20415;-75
2021/09/01 03:54:32;;;;;;;41.72;27.65;;;;;;;14.43;79.76;101271.88;5058859;28;20424;-75
2021/09/01 03:56:58;;;;;;;35.17;24.97;;;;;;;14.42;79.40;101278.44;5055539;28;20417;-75
2021/09/01 03:59:23;;;;;;;41.43;26.47;;;;;;;14.40;79.23;101281.41;5053414;28;20420;-75
2021/09/01 04:01:48;;;;;;;39.70;25.85;;;;;;;14.38;79.41;101288.19;5054841;28;20416;-75
2021/09/01 04:04:14;;;;;;;36.63;26.83;;;;;;;14.39;80.26;101290.63;5055553;28;20400;-75
2021/09/01 04:06:39;;;;;;;45.70;28.90;;;;;;;14.41;80.21;101290.41;5054214;28;20426;-75
2021/09/01 04:09:04;;;;;;;40.27;27.47;;;;;;;14.42;80.08;101297.53;5054420;28;20412;-76
2021/09/01 04:11:30;;;;;;;38.87;27.03;;;;;;;14.41;79.80;101296.69;5054192;28;20441;-75
2021/09/01 04:13:55;;;;;;;41.60;27.40;;;;;;;14.40;80.10;101299.66;5061507;28;20492;-75
2021/09/01 04:16:21;;;;;;;37.87;27.17;;;;;;;14.39;80.17;101298.81;5059360;28;20801;-75
2021/09/01 04:18:46;;;;;;;33.67;24.93;;;;;;;14.38;80.36;101299.91;5052205;28;20394;-75
2021/09/01 04:21:12;;;;;;;40.88;25.42;;;;;;;14.39;80.48;101298.03;5057529;28;20432;-76
2021/09/01 04:23:37;;;;;;;35.30;24.53;;;;;;;14.39;80.39;101306.22;5053868;28;20409;-76
2021/09/01 04:26:03;;;;;;;40.20;24.57;;;;;;;14.39;80.41;101295.28;5052503;28;20409;-76
2021/09/01 04:28:29;;;;;;;38.58;26.38;;;;;;;14.40;80.23;101296.94;5060025;28;20500;-76
2021/09/01 04:30:54;;;;;;;34.73;24.77;;;;;;;14.38;80.11;101291.75;5053054;28;20440;-76
2021/09/01 04:33:19;;;;;;;40.03;26.60;;;;;;;14.34;80.30;101298.75;5063371;28;20917;-76
2021/09/01 04:35:45;;;;;;;40.07;26.80;;;;;;;14.33;80.81;101297.09;5052274;28;20419;-76
2021/09/01 04:38:10;;;;;;;41.47;27.27;;;;;;;14.33;80.43;101291.66;5055931;28;20470;-76
2021/09/01 04:40:36;;;;;;;40.70;25.90;;;;;;;14.32;80.66;101295.44;5057507;28;20418;-76
2021/09/01 04:43:01;;;;;;;37.30;25.37;;;;;;;14.34;80.66;101293.31;5061027;28;20442;-76
2021/09/01 04:45:27;;;;;;;41.45;28.58;;;;;;;14.32;80.45;101298.16;5059113;28;20467;-75
2021/09/01 04:47:52;;;;;;;46.20;30.33;;;;;;;14.31;80.73;101301.97;5061275;28;20846;-75
2021/09/01 04:50:18;;;;;;;47.07;30.97;;;;;;;14.29;80.63;101295.91;5054232;28;20856;-75
2021/09/01 04:52:43;;;;;;;50.30;31.20;;;;;;;14.28;80.95;101302.47;5053596;28;20464;-75
2021/09/01 04:55:09;;;;;;;54.22;31.48;;;;;;;14.31;81.09;101306.56;5056969;28;20425;-75
2021/09/01 04:57:35;;;;;;;48.45;32.35;;;;;;;14.33;80.96;101308.00;5056491;28;20523;-75
2021/09/01 05:00:00;;;;;;;48.45;32.35;;;;;;;14.31;81.24;101309.31;5062290;28;20483;-75
2021/09/01 05:02:26;;;;;;;53.43;33.70;;;;;;;14.31;81.38;101306.56;5064233;28;20439;-75
2021/09/01 05:04:51;;;;;;;57.83;34.22;;;;;;;14.33;80.84;101302.56;5061675;28;20411;-75
2021/09/01 05:07:16;;;;;;;57.20;35.00;;;;;;;14.31;81.32;101310.13;5050551;28;20489;-75
2021/09/01 05:09:42;;;;;;;56.95;33.78;;;;;;;14.32;81.16;101306.34;5070703;28;20914;-75
2021/09/01 05:12:07;;;;;;;57.67;34.53;;;;;;;14.33;81.02;101309.88;5085107;28;20473;-75
2021/09/01 05:14:33;;;;;;;59.13;33.00;;;;;;;14.32;81.12;101305.50;5061668;28;20431;-75
2021/09/01 05:16:58;;;;;;;62.37;34.30;;;;;;;14.33;81.35;101310.72;5054578;28;20405;-75
2021/09/01 05:19:24;;;;;;;52.53;31.23;;;;;;;14.35;80.95;101311.34;5051857;28;20413;-74
2021/09/01 05:21:54;;;;;;;52.53;32.03;;;;;;;14.37;81.06;101311.91;5049380;28;20426;-75
2021/09/01 05:24:36;;;;;;;52.22;31.60;;;;;;;14.38;80.99;101324.47;5052182;28;20417;-75
2021/09/01 05:27:14;;;;;;;53.40;30.80;;;;;;;14.38;81.57;101326.38;5056363;28;20417;-74
2021/09/01 05:29:44;;;;;;;55.03;31.85;;;;;;;14.40;81.09;101316.84;5055958;28;20755;-74
2021/09/01 05:32:16;;;;;;;49.17;29.85;;;;;;;14.41;81.35;101321.25;5054553;28;20396;-75
2021/09/01 05:34:42;;;;;;;66.80;33.33;;;;;;;14.43;80.94;101326.44;5050131;28;20416;-75
2021/09/01 05:37:10;;;;;;;51.30;30.87;;;;;;;14.45;81.39;101327.84;5055921;28;20401;-75
2021/09/01 05:39:36;;;;;;;46.40;30.27;;;;;;;14.48;81.57;101331.97;5052737;28;20416;-75
2021/09/01 05:42:01;;;;;;;50.27;31.43;;;;;;;14.49;81.22;101326.25;5052402;28;20492;-75
2021/09/01 05:44:27;;;;;;;50.85;30.17;;;;;;;14.51;81.33;101331.47;5054981;28;20424;-74
2021/09/01 05:46:53;;;;;;;54.13;33.17;;;;;;;14.51;81.17;101323.28;5051219;28;20413;-74
2021/09/01 05:49:21;;;;;;;48.00;29.35;;;;;;;14.52;81.16;101320.28;5055420;28;20792;-74
2021/09/01 05:51:48;;;;;;;50.83;31.45;;;;;;;14.54;81.30;101328.25;5066798;28;20905;-75
2021/09/01 05:54:13;;;;;;;54.75;30.95;;;;;;;14.55;81.68;101322.53;5056684;28;20506;-74
2021/09/01 05:56:43;;;;;;;48.13;30.70;;;;;;;14.60;81.50;101326.41;5067197;28;20547;-75
2021/09/01 05:59:12;;;;;;;45.83;29.20;;;;;;;14.64;81.87;101328.41;5051142;28;20745;-75
2021/09/01 06:01:42;;;;;;;52.97;30.60;;;;;;;14.67;81.51;101337.97;5057075;28;20407;-74
2021/09/01 06:04:09;;;;;;;75.07;31.52;;;;;;;14.70;81.15;101329.28;5064454;28;20768;-75
2021/09/01 06:06:39;;;;;;;46.42;30.60;;;;;;;14.75;81.36;101329.38;5051491;28;20886;-74
2021/09/01 06:09:06;;;;;;;49.47;32.17;;;;;;;14.79;81.52;101333.22;5054122;28;20401;-75
2021/09/01 06:11:34;;;;;;;39.95;28.25;;;;;;;14.83;81.26;101329.75;5051750;28;20409;-74
2021/09/01 06:13:59;;;;;;;44.92;29.10;;;;;;;14.83;81.66;101329.75;5066828;28;20761;-74
2021/09/01 06:16:25;;;;;;;43.37;29.33;;;;;;;14.86;81.34;101334.72;5057057;28;20399;-74
2021/09/01 06:18:50;;;;;;;40.37;27.97;;;;;;;14.90;81.41;101338.59;5060047;28;20435;-75
2021/09/01 06:21:16;;;;;;;39.77;27.17;;;;;;;14.94;81.53;101336.19;5052711;28;20997;-74
2021/09/01 06:23:41;;;;;;;39.03;27.40;;;;;;;14.96;81.53;101337.59;5053137;28;20393;-78
2021/09/01 06:26:06;;;;;;;44.10;29.30;;;;;;;15.00;81.73;101337.91;5055234;28;20449;-76
2021/09/01 06:28:32;;;;;;;42.07;28.37;;;;;;;15.03;81.38;101346.41;5060014;28;21579;-76
2021/09/01 06:30:57;;;;;;;39.43;26.80;;;;;;;14.95;80.85;101346.84;5070215;28;20409;-78
2021/09/01 06:33:22;;;;;;;37.10;26.47;;;;;;;14.97;80.93;101341.97;5054343;28;20859;-77
2021/09/01 06:35:49;;;;;;;41.42;26.88;;;;;;;14.99;81.10;101344.44;5056716;28;20425;-77
2021/09/01 06:38:14;;;;;;;39.50;26.15;;;;;;;14.98;80.91;101342.81;5062360;28;20430;-77
2021/09/01 06:40:39;;;;;;;39.03;27.63;;;;;;;14.99;81.00;101345.25;5052204;28;20911;-76
2021/09/01 06:43:05;;;;;;;40.33;27.93;;;;;;;15.04;81.15;101344.50;5054081;28;20500;-77
2021/09/01 06:45:30;;;;;;;40.97;27.90;;;;;;;15.08;81.54;101343.75;5055664;28;20574;-77
2021/09/01 06:47:55;;;;;;;39.40;27.57;;;;;;;15.14;81.27;101343.81;5053472;28;20522;-77
2021/09/01 06:50:24;;;;;;;40.10;26.73;;;;;;;15.19;80.95;101347.44;5055887;28;20525;-77
2021/09/01 06:52:50;;;;;;;39.58;27.77;;;;;;;15.23;80.89;101351.31;5049565;28;20531;-77
2021/09/01 06:55:16;;;;;;;36.47;25.83;;;;;;;15.26;80.51;101358.16;5054762;28;20495;-75
2021/09/01 06:57:43;;;;;;;37.00;26.90;;;;;;;15.21;80.17;101355.38;5055106;28;20416;-75
2021/09/01 07:00:13;;;;;;;40.15;27.40;;;;;;;15.22;80.02;101348.81;5048155;28;20919;-75
2021/09/01 07:02:39;;;;;;;40.03;26.33;;;;;;;15.26;80.23;101355.44;5048312;28;20405;-75
2021/09/01 07:05:05;;;;;;;37.37;26.40;;;;;;;15.28;80.05;101359.56;5056453;28;20416;-75
2021/09/01 07:07:31;;;;;;;36.37;25.80;;;;;;;15.31;80.76;101364.50;5052042;28;20403;-75
2021/09/01 07:09:56;;;;;;;35.10;25.03;;;;;;;15.36;80.29;101359.13;5056964;28;20767;-75
2021/09/01 07:12:22;;;;;;;35.43;26.07;;;;;;;15.41;80.11;101366.56;5058467;28;20760;-74
2021/09/01 07:14:48;;;;;;;35.67;25.83;;;;;;;15.45;80.25;101363.03;5050922;28;20504;-75
2021/09/01 07:17:13;;;;;;;34.33;25.35;;;;;;;15.49;80.15;101368.88;5063616;28;20413;-75
2021/09/01 07:19:38;;;;;;;37.57;25.40;;;;;;;15.49;79.76;101371.59;5059036;28;20395;-75
2021/09/01 07:22:04;;;;;;;35.90;24.53;;;;;;;15.43;79.76;101367.13;5058796;28;20409;-75
2021/09/01 07:24:29;;;;;;;33.08;24.65;;;;;;;15.40;79.83;101368.47;5057682;28;20482;-76
2021/09/01 07:26:54;;;;;;;36.97;24.10;;;;;;;15.43;80.05;101372.59;5055062;28;20417;-76
2021/09/01 07:29:20;;;;;;;30.67;23.20;;;;;;;15.49;80.00;101371.59;5057071;28;20417;-75
2021/09/01 07:31:45;;;;;;;38.72;22.58;;;;;;;15.56;80.27;101362.13;5055815;28;20894;-75
2021/09/01 07:34:10;;;;;;;28.83;21.73;;;;;;;15.65;80.33;101367.13;5054721;28;20417;-75
2021/09/01 07:36:35;;;;;;;34.37;23.53;;;;;;;15.71;80.15;101375.13;5056507;28;20473;-75
2021/09/01 07:39:01;;;;;;;31.20;21.65;;;;;;;15.77;79.97;101376.03;5057426;28;20530;-75
2021/09/01 07:41:26;;;;;;;83.23;24.83;;;;;;;15.83;79.69;101377.72;5054709;28;20756;-75
2021/09/01 07:43:51;;;;;;;30.60;21.63;;;;;;;15.89;79.37;101372.06;5056310;28;20407;-75
2021/09/01 07:46:17;;;;;;;28.20;21.13;;;;;;;15.94;79.40;101377.56;5056049;28;20411;-76
2021/09/01 07:48:42;;;;;;;28.43;19.83;;;;;;;15.98;79.20;101378.69;5053478;28;20717;-75
2021/09/01 07:51:08;;;;;;;24.73;19.65;;;;;;;16.02;79.03;101379.84;5054009;28;20759;-75
2021/09/01 07:53:33;;;;;;;29.20;19.63;;;;;;;16.08;78.72;101378.81;5055772;28;20421;-75
2021/09/01 07:55:59;;;;;;;23.40;18.85;;;;;;;16.08;78.45;101373.31;5055453;28;20413;-75
2021/09/01 07:58:24;;;;;;;26.85;19.13;;;;;;;16.10;78.32;101376.63;5055792;28;20533;-75
2021/09/01 08:00:49;;;;;;;22.83;18.93;;;;;;;16.12;78.26;101383.75;5052556;28;20412;-75
2021/09/01 08:03:15;;;;;;;24.83;17.13;;;;;;;16.11;78.11;101393.84;5052789;28;20422;-75
2021/09/01 08:05:40;;;;;;;21.92;16.52;;;;;;;16.10;77.45;101397.69;5050821;28;20408;-76
2021/09/01 08:08:05;;;;;;;20.10;15.90;;;;;;;16.15;77.66;101396.91;5054705;28;20448;-76
2021/09/01 08:10:31;;;;;;;16.70;14.90;;;;;;;16.24;77.46;101400.81;5052855;28;20407;-75
2021/09/01 08:12:56;;;;;;;17.38;14.55;;;;;;;16.28;76.75;101404.69;5056469;28;20417;-75
2021/09/01 08:15:22;;;;;;;16.10;14.50;;;;;;;16.32;76.72;101400.34;5052244;28;20418;-75
2021/09/01 08:17:47;;;;;;;17.67;14.60;;;;;;;16.38;76.60;101399.31;5054378;28;21989;-75
2021/09/01 08:20:13;;;;;;;20.37;14.33;;;;;;;16.46;76.41;101398.84;5054823;28;20876;-75
2021/09/01 08:22:38;;;;;;;15.50;13.25;;;;;;;16.55;76.33;101395.38;5054959;28;20420;-75
2021/09/01 08:25:05;;;;;;;17.63;15.30;;;;;;;16.64;76.05;101400.38;5059908;28;20428;-75
2021/09/01 08:27:30;;;;;;;17.90;14.02;;;;;;;16.70;75.46;101411.09;5060888;28;20870;-75
2021/09/01 08:29:55;;;;;;;19.50;14.30;;;;;;;16.75;75.61;101411.13;5056913;28;20404;-75
2021/09/01 08:32:20;;;;;;;16.53;13.97;;;;;;;16.79;75.21;101406.78;5048280;28;20483;-74
2021/09/01 08:34:46;;;;;;;17.77;13.37;;;;;;;16.84;74.81;101404.09;5054919;28;20949;-75
2021/09/01 08:37:12;;;;;;;14.57;12.50;;;;;;;16.91;75.07;101401.94;5054338;28;20416;-75
2021/09/01 08:39:38;;;;;;;14.13;12.60;;;;;;;16.98;75.00;101402.53;5054216;28;20409;-74
2021/09/01 08:42:03;;;;;;;15.07;12.63;;;;;;;17.06;74.56;101409.41;5060052;28;20409;-77
2021/09/01 08:44:29;;;;;;;14.03;12.07;;;;;;;17.13;74.23;101401.78;5054046;28;20417;-76
2021/09/01 08:47:00;;;;;;;13.63;12.15;;;;;;;17.21;74.36;101409.50;5053481;28;20421;-76
2021/09/01 08:49:28;;;;;;;15.30;11.55;;;;;;;17.30;73.57;101401.59;5055328;28;20492;-77
2021/09/01 08:51:53;;;;;;;14.07;10.68;;;;;;;17.41;74.05;101406.06;5050628;28;20771;-76
2021/09/01 08:54:19;;;;;;;15.43;11.30;;;;;;;17.56;73.77;101404.22;5052730;28;20419;-76
2021/09/01 08:56:45;;;;;;;13.88;11.82;;;;;;;17.78;72.79;101411.44;5051188;28;20406;-77
2021/09/01 08:59:10;;;;;;;12.00;10.80;;;;;;;17.93;71.76;101401.34;5055235;28;20404;-77
2021/09/01 09:01:47;;;;;;;12.80;11.55;;;;;;;18.08;71.63;101406.84;5055140;28;20396;-76
2021/09/01 09:04:27;;;;;;;13.85;11.55;;;;;;;18.25;71.13;101403.00;5056152;28;20423;-76
2021/09/01 09:07:03;;;;;;;12.40;11.15;;;;;;;18.52;70.38;101393.47;5052519;28;20911;-76
2021/09/01 09:09:33;;;;;;;12.40;11.20;;;;;;;18.77;69.15;101398.09;5053063;28;22039;-77
2021/09/01 09:12:00;;;;;;;14.20;10.88;;;;;;;18.96;68.40;101399.19;5052368;28;20562;-77
2021/09/01 09:14:31;;;;;;;11.77;10.68;;;;;;;19.26;68.27;101394.72;5054377;28;20413;-76
2021/09/01 09:17:11;;;;;;;13.18;11.20;;;;;;;19.44;66.88;101396.88;5053756;28;20412;-76
2021/09/01 09:19:43;;;;;;;13.55;10.75;;;;;;;19.62;66.66;101391.59;5057634;28;20411;-77
2021/09/01 09:22:09;;;;;;;10.68;9.63;;;;;;;19.82;66.03;101387.91;5057077;28;20513;-77
2021/09/01 09:24:35;;;;;;;11.35;10.10;;;;;;;20.12;65.77;101392.41;5053286;28;20410;-77
2021/09/01 09:27:00;;;;;;;11.02;9.90;;;;;;;20.38;63.72;101391.13;5052514;28;20429;-76
2021/09/01 09:29:30;;;;;;;11.10;10.00;;;;;;;20.63;63.40;101379.06;5056003;28;20424;-76
2021/09/01 09:32:01;;;;;;;11.43;10.27;;;;;;;20.84;62.91;101386.03;5058867;28;20913;-77
2021/09/01 09:34:39;;;;;;;10.82;9.73;;;;;;;21.18;61.37;101388.72;5048083;28;20433;-77
2021/09/01 09:37:07;;;;;;;10.88;9.88;;;;;;;21.55;61.92;101397.09;5053088;28;20767;-77
2021/09/01 09:39:47;;;;;;;11.17;9.47;;;;;;;22.06;59.49;101385.38;5051600;28;20406;-76
2021/09/01 09:42:29;;;;;;;9.95;9.05;;;;;;;22.67;57.32;101382.47;5046310;28;20409;-75
2021/09/01 09:44:54;;;;;;;10.00;9.05;;;;;;;23.31;55.69;101380.72;5054252;28;20811;-75
2021/09/01 09:47:50;;;;;;;10.17;9.17;;;;;;;23.98;52.61;101384.53;5051622;28;20408;-77
2021/09/01 09:50:16;;;;;;;10.23;8.43;;;;;;;24.41;51.19;101387.66;5046546;28;20459;-76
2021/09/01 09:52:41;;;;;;;9.60;7.68;;;;;;;24.68;51.14;101385.59;5045832;28;20545;-75
2021/09/01 09:55:14;;;;;;;8.43;7.67;;;;;;;24.78;50.09;101381.72;5052827;28;20433;-75
2021/09/01 09:57:51;;;;;;;7.68;6.88;;;;;;;24.84;49.37;101380.47;5052413;28;20469;-75
2021/09/01 10:00:18;;;;;;;8.13;7.32;;;;;;;24.99;48.91;101380.09;5052610;28;20859;-75
2021/09/01 10:02:45;;;;;;;8.00;7.25;;;;;;;25.46;48.35;101372.06;5055935;28;20510;-75
2021/09/01 10:05:13;;;;;;;8.77;7.97;;;;;;;25.71;47.67;101383.28;5060589;28;20431;-77
2021/09/01 10:07:38;;;;;;;7.90;7.10;;;;;;;25.59;48.37;101376.72;5057191;28;20418;-75
2021/09/01 10:10:04;;;;;;;7.35;6.82;;;;;;;25.53;48.09;101373.28;5051401;28;20415;-76
2021/09/01 10:12:30;;;;;;;7.57;6.93;;;;;;;25.65;47.86;101381.00;5052468;28;20503;-76
2021/09/01 10:15:01;;;;;;;7.30;6.60;;;;;;;26.04;47.99;101377.28;5055445;28;20453;-76
2021/09/01 10:17:28;;;;;;;7.60;6.90;;;;;;;26.66;45.63;101377.72;5051718;28;20476;-76
2021/09/01 10:19:54;;;;;;;7.32;6.32;;;;;;;27.43;43.59;101365.50;5053745;28;20438;-76
2021/09/01 10:22:20;;;;;;;7.50;6.82;;;;;;;28.09;42.57;101361.00;5054536;28;20420;-75
2021/09/01 10:24:49;;;;;;;6.77;6.03;;;;;;;28.92;40.58;101364.44;5053376;28;20885;-76
2021/09/01 10:27:22;;;;;;;6.45;5.90;;;;;;;29.82;38.29;101370.59;5052869;28;20420;-77
2021/09/01 10:30:08;;;;;;;6.30;5.70;;;;;;;30.84;35.87;101372.78;5052975;28;20913;-78
2021/09/01 10:32:45;;;;;;;5.65;5.25;;;;;;;31.56;34.12;101373.44;5052421;28;20411;-77
2021/09/01 10:35:17;;;;;;;6.40;5.32;;;;;;;32.62;32.52;101370.13;5052725;28;20492;-77
2021/09/01 10:37:50;;;;;;;6.38;5.80;;;;;;;33.16;30.91;101367.09;5051471;28;20408;-78
2021/09/01 10:40:22;;;;;;;6.00;5.50;;;;;;;34.04;29.69;101364.03;5056137;28;20467;-77
2021/09/01 10:42:48;;;;;;;5.78;4.60;;;;;;;34.36;28.97;101370.88;5053909;28;20409;-76
2021/09/01 10:45:17;;;;;;;6.40;5.80;;;;;;;34.47;28.48;101366.19;5051993;28;20451;-76
2021/09/01 10:47:51;;;;;;;7.15;6.45;;;;;;;35.26;28.23;101360.97;5080032;28;20444;-76
2021/09/01 10:50:41;;;;;;;7.78;7.18;;;;;;;35.47;27.14;101354.63;5052123;28;20411;-76
2021/09/01 10:53:22;;;;;;;6.00;5.40;;;;;;;35.14;27.45;101358.44;5057357;28;20409;-77
2021/09/01 10:55:54;;;;;;;5.60;5.30;;;;;;;34.91;27.17;101354.97;5056897;28;20419;-78
2021/09/01 10:58:31;;;;;;;6.35;5.75;;;;;;;35.10;27.35;101354.78;5055439;28;20415;-77
2021/09/01 11:00:58;;;;;;;7.07;6.20;;;;;;;34.99;28.25;101356.66;5072232;28;20556;-78
2021/09/01 11:03:34;;;;;;;6.70;5.90;;;;;;;34.89;27.58;101358.19;5053258;28;20399;-75
2021/09/01 11:06:14;;;;;;;5.07;4.70;;;;;;;34.33;28.27;101355.56;5053292;28;20923;-75
2021/09/01 11:09:01;;;;;;;8.48;5.85;;;;;;;34.06;29.02;101356.81;5053002;28;20423;-77
2021/09/01 11:11:44;;;;;;;19.70;7.68;;;;;;;33.69;29.36;101353.13;5054651;28;20491;-77